sensor_id;sensor_type;location;lat;lon;timestamp;temperature;humidity
4530;DHT22;2277;51.626;7.516;2023-05-08T00:01:56;16.80;99.90
4530;DHT22;2277;51.626;7.516;2023-05-08T00:04:22;16.80;99.90
4530;DHT22;2277;51.626;7.516;2023-05-08T00:06:48;16.90;99.90
4530;DHT22;2277;51.626;7.516;2023-05-08T00:09:15;16.80;99.90
4530;DHT22;2277;51.626;7.516;2023-05-08T00:11:41;16.80;99.90
4530;DHT22;2277;51.626;7.516;2023-05-08T00:14:07;16.80;99.90
4530;DHT22;2277;51.626;7.516;2023-05-08T00:16:32;16.60;99.90
4530;DHT22;2277;51.626;7.516;2023-05-08T00:18:58;16.50;99.90
4530;DHT22;2277;51.626;7.516;2023-05-08T00:21:25;16.60;99.90
4530;DHT22;2277;51.626;7.516;2023-05-08T00:23:50;16.50;99.90
4530;DHT22;2277;51.626;7.516;2023-05-08T00:26:16;16.30;99.90
4530;DHT22;2277;51.626;7.516;2023-05-08T00:28:41;16.40;99.90
4530;DHT22;2277;51.626;7.516;2023-05-08T00:31:07;16.40;99.90
4530;DHT22;2277;51.626;7.516;2023-05-08T00:33:32;16.40;99.90
4530;DHT22;2277;51.626;7.516;2023-05-08T00:36:02;16.30;99.90
4530;DHT22;2277;51.626;7.516;2023-05-08T00:38:32;16.40;99.90
4530;DHT22;2277;51.626;7.516;2023-05-08T00:40:58;16.30;99.90
4530;DHT22;2277;51.626;7.516;2023-05-08T00:43:24;16.30;99.90
4530;DHT22;2277;51.626;7.516;2023-05-08T00:45:55;16.20;99.90
4530;DHT22;2277;51.626;7.516;2023-05-08T00:48:22;16.10;99.90
4530;DHT22;2277;51.626;7.516;2023-05-08T00:50:49;16.00;99.90
4530;DHT22;2277;51.626;7.516;2023-05-08T00:53:16;16.10;99.90
4530;DHT22;2277;51.626;7.516;2023-05-08T00:55:42;16.10;99.90
4530;DHT22;2277;51.626;7.516;2023-05-08T00:58:09;16.00;99.90
4530;DHT22;2277;51.626;7.516;2023-05-08T01:00:35;16.00;99.90
4530;DHT22;2277;51.626;7.516;2023-05-08T01:03:01;16.00;99.90
4530;DHT22;2277;51.626;7.516;2023-05-08T01:05:28;16.00;99.90
4530;DHT22;2277;51.626;7.516;2023-05-08T01:07:54;16.20;99.90
4530;DHT22;2277;51.626;7.516;2023-05-08T01:10:20;16.30;99.90
4530;DHT22;2277;51.626;7.516;2023-05-08T01:13:03;16.30;99.90
4530;DHT22;2277;51.626;7.516;2023-05-08T01:15:53;16.20;99.90
4530;DHT22;2277;51.626;7.516;2023-05-08T01:18:37;16.10;99.90
4530;DHT22;2277;51.626;7.516;2023-05-08T01:21:21;16.10;99.90
4530;DHT22;2277;51.626;7.516;2023-05-08T01:24:13;16.00;99.90
4530;DHT22;2277;51.626;7.516;2023-05-08T01:26:55;15.90;99.90
4530;DHT22;2277;51.626;7.516;2023-05-08T01:32:18;16.10;99.90
4530;DHT22;2277;51.626;7.516;2023-05-08T01:35:09;16.20;99.90
4530;DHT22;2277;51.626;7.516;2023-05-08T01:38:05;16.30;99.90
4530;DHT22;2277;51.626;7.516;2023-05-08T01:43:19;16.00;99.90
4530;DHT22;2277;51.626;7.516;2023-05-08T01:45:50;15.90;99.90
4530;DHT22;2277;51.626;7.516;2023-05-08T01:48:32;15.80;99.90
4530;DHT22;2277;51.626;7.516;2023-05-08T01:51:07;15.80;99.90
4530;DHT22;2277;51.626;7.516;2023-05-08T01:53:46;15.60;99.90
4530;DHT22;2277;51.626;7.516;2023-05-08T01:56:15;15.60;99.90
4530;DHT22;2277;51.626;7.516;2023-05-08T01:58:42;15.60;99.90
4530;DHT22;2277;51.626;7.516;2023-05-08T02:01:09;15.60;99.90
4530;DHT22;2277;51.626;7.516;2023-05-08T02:03:36;15.70;99.90
4530;DHT22;2277;51.626;7.516;2023-05-08T02:06:04;15.80;99.90
4530;DHT22;2277;51.626;7.516;2023-05-08T02:08:31;15.80;99.90
4530;DHT22;2277;51.626;7.516;2023-05-08T02:10:58;15.70;99.90
4530;DHT22;2277;51.626;7.516;2023-05-08T02:13:25;15.60;99.90
4530;DHT22;2277;51.626;7.516;2023-05-08T02:15:53;15.60;99.90
4530;DHT22;2277;51.626;7.516;2023-05-08T02:18:20;15.60;99.90
4530;DHT22;2277;51.626;7.516;2023-05-08T02:20:51;15.60;99.90
4530;DHT22;2277;51.626;7.516;2023-05-08T02:23:20;15.60;99.90
4530;DHT22;2277;51.626;7.516;2023-05-08T02:25:47;15.60;99.90
4530;DHT22;2277;51.626;7.516;2023-05-08T02:28:15;15.60;99.90
4530;DHT22;2277;51.626;7.516;2023-05-08T02:30:42;15.60;99.90
4530;DHT22;2277;51.626;7.516;2023-05-08T02:33:09;15.50;99.90
4530;DHT22;2277;51.626;7.516;2023-05-08T02:35:37;15.60;99.90
4530;DHT22;2277;51.626;7.516;2023-05-08T02:38:04;15.60;99.90
4530;DHT22;2277;51.626;7.516;2023-05-08T02:40:36;15.70;99.90
4530;DHT22;2277;51.626;7.516;2023-05-08T02:43:03;15.70;99.90
4530;DHT22;2277;51.626;7.516;2023-05-08T02:45:35;15.70;99.90
4530;DHT22;2277;51.626;7.516;2023-05-08T02:50:56;15.90;99.90
4530;DHT22;2277;51.626;7.516;2023-05-08T02:53:33;15.90;99.90
4530;DHT22;2277;51.626;7.516;2023-05-08T02:56:14;15.90;99.90
4530;DHT22;2277;51.626;7.516;2023-05-08T02:58:54;15.90;99.90
4530;DHT22;2277;51.626;7.516;2023-05-08T03:01:29;16.00;99.90
4530;DHT22;2277;51.626;7.516;2023-05-08T03:06:27;16.00;99.90
4530;DHT22;2277;51.626;7.516;2023-05-08T03:09:00;16.00;99.90
4530;DHT22;2277;51.626;7.516;2023-05-08T03:11:32;16.00;99.90
4530;DHT22;2277;51.626;7.516;2023-05-08T03:14:01;16.00;99.90
4530;DHT22;2277;51.626;7.516;2023-05-08T03:16:31;16.00;99.90
4530;DHT22;2277;51.626;7.516;2023-05-08T03:19:02;16.00;99.90
4530;DHT22;2277;51.626;7.516;2023-05-08T03:21:30;16.00;99.90
4530;DHT22;2277;51.626;7.516;2023-05-08T03:23:58;16.00;99.90
4530;DHT22;2277;51.626;7.516;2023-05-08T03:26:25;16.00;99.90
4530;DHT22;2277;51.626;7.516;2023-05-08T03:28:52;16.00;99.90
4530;DHT22;2277;51.626;7.516;2023-05-08T03:31:19;15.90;99.90
4530;DHT22;2277;51.626;7.516;2023-05-08T03:33:46;15.90;99.90
4530;DHT22;2277;51.626;7.516;2023-05-08T03:36:13;15.90;99.90
4530;DHT22;2277;51.626;7.516;2023-05-08T03:38:39;15.90;99.90
4530;DHT22;2277;51.626;7.516;2023-05-08T03:41:05;15.90;99.90
4530;DHT22;2277;51.626;7.516;2023-05-08T03:43:31;15.80;99.90
4530;DHT22;2277;51.626;7.516;2023-05-08T03:45:57;15.70;99.90
4530;DHT22;2277;51.626;7.516;2023-05-08T03:48:23;15.70;99.90
4530;DHT22;2277;51.626;7.516;2023-05-08T03:50:50;15.70;99.90
4530;DHT22;2277;51.626;7.516;2023-05-08T03:53:16;15.70;99.90
4530;DHT22;2277;51.626;7.516;2023-05-08T03:55:42;15.60;99.90
4530;DHT22;2277;51.626;7.516;2023-05-08T03:58:20;15.60;99.90
4530;DHT22;2277;51.626;7.516;2023-05-08T04:01:02;15.60;99.90
4530;DHT22;2277;51.626;7.516;2023-05-08T04:08:49;15.50;99.90
4530;DHT22;2277;51.626;7.516;2023-05-08T04:11:43;15.50;99.90
4530;DHT22;2277;51.626;7.516;2023-05-08T04:14:15;15.50;99.90
4530;DHT22;2277;51.626;7.516;2023-05-08T04:16:47;15.50;99.90
4530;DHT22;2277;51.626;7.516;2023-05-08T04:19:23;15.50;99.90
4530;DHT22;2277;51.626;7.516;2023-05-08T04:21:53;15.50;99.90
4530;DHT22;2277;51.626;7.516;2023-05-08T04:24:22;15.50;99.90
4530;DHT22;2277;51.626;7.516;2023-05-08T04:26:49;15.50;99.90
4530;DHT22;2277;51.626;7.516;2023-05-08T04:29:16;15.50;99.90
4530;DHT22;2277;51.626;7.516;2023-05-08T04:31:43;15.50;99.90
4530;DHT22;2277;51.626;7.516;2023-05-08T04:34:09;15.40;99.90
4530;DHT22;2277;51.626;7.516;2023-05-08T04:36:35;15.40;99.90
4530;DHT22;2277;51.626;7.516;2023-05-08T04:39:02;15.40;99.90
4530;DHT22;2277;51.626;7.516;2023-05-08T04:41:27;15.40;99.90
4530;DHT22;2277;51.626;7.516;2023-05-08T04:43:53;15.40;99.90
4530;DHT22;2277;51.626;7.516;2023-05-08T04:46:19;15.40;99.90
4530;DHT22;2277;51.626;7.516;2023-05-08T04:48:44;15.40;99.90
4530;DHT22;2277;51.626;7.516;2023-05-08T04:51:10;15.50;99.90
4530;DHT22;2277;51.626;7.516;2023-05-08T04:53:36;15.50;99.90
4530;DHT22;2277;51.626;7.516;2023-05-08T04:56:01;15.50;99.90
4530;DHT22;2277;51.626;7.516;2023-05-08T04:58:27;15.50;99.90
4530;DHT22;2277;51.626;7.516;2023-05-08T05:00:53;15.50;99.90
4530;DHT22;2277;51.626;7.516;2023-05-08T05:03:19;15.50;99.90
4530;DHT22;2277;51.626;7.516;2023-05-08T05:05:44;15.60;99.90
4530;DHT22;2277;51.626;7.516;2023-05-08T05:08:10;15.50;99.90
4530;DHT22;2277;51.626;7.516;2023-05-08T05:10:37;15.50;99.90
4530;DHT22;2277;51.626;7.516;2023-05-08T05:13:04;15.60;99.90
4530;DHT22;2277;51.626;7.516;2023-05-08T05:15:29;15.60;99.90
4530;DHT22;2277;51.626;7.516;2023-05-08T05:17:55;15.60;99.90
4530;DHT22;2277;51.626;7.516;2023-05-08T05:20:21;15.60;99.90
4530;DHT22;2277;51.626;7.516;2023-05-08T05:22:46;15.60;99.90
4530;DHT22;2277;51.626;7.516;2023-05-08T05:25:12;15.60;99.90
4530;DHT22;2277;51.626;7.516;2023-05-08T05:27:37;15.60;99.90
4530;DHT22;2277;51.626;7.516;2023-05-08T05:30:03;15.60;99.90
4530;DHT22;2277;51.626;7.516;2023-05-08T05:32:29;15.60;99.90
4530;DHT22;2277;51.626;7.516;2023-05-08T05:34:55;15.60;99.90
4530;DHT22;2277;51.626;7.516;2023-05-08T05:37:21;15.70;99.90
4530;DHT22;2277;51.626;7.516;2023-05-08T05:39:47;15.70;99.90
4530;DHT22;2277;51.626;7.516;2023-05-08T05:42:13;15.70;99.90
4530;DHT22;2277;51.626;7.516;2023-05-08T05:44:39;15.70;99.90
4530;DHT22;2277;51.626;7.516;2023-05-08T05:47:04;15.70;99.90
4530;DHT22;2277;51.626;7.516;2023-05-08T05:49:30;15.80;99.90
4530;DHT22;2277;51.626;7.516;2023-05-08T05:51:56;15.80;99.90
4530;DHT22;2277;51.626;7.516;2023-05-08T05:54:22;15.70;99.90
4530;DHT22;2277;51.626;7.516;2023-05-08T05:56:47;15.70;99.90
4530;DHT22;2277;51.626;7.516;2023-05-08T05:59:13;15.70;99.90
4530;DHT22;2277;51.626;7.516;2023-05-08T06:01:39;15.80;99.90
4530;DHT22;2277;51.626;7.516;2023-05-08T06:04:05;15.70;99.90
4530;DHT22;2277;51.626;7.516;2023-05-08T06:06:30;15.60;99.90
4530;DHT22;2277;51.626;7.516;2023-05-08T06:08:56;15.60;99.90
4530;DHT22;2277;51.626;7.516;2023-05-08T06:11:22;15.60;99.90
4530;DHT22;2277;51.626;7.516;2023-05-08T06:13:48;15.60;99.90
4530;DHT22;2277;51.626;7.516;2023-05-08T06:16:14;15.70;99.90
4530;DHT22;2277;51.626;7.516;2023-05-08T06:18:40;15.70;99.90
4530;DHT22;2277;51.626;7.516;2023-05-08T06:21:05;15.80;99.90
4530;DHT22;2277;51.626;7.516;2023-05-08T06:23:31;15.90;99.90
4530;DHT22;2277;51.626;7.516;2023-05-08T06:25:57;15.90;99.90
4530;DHT22;2277;51.626;7.516;2023-05-08T06:28:23;16.00;99.90
4530;DHT22;2277;51.626;7.516;2023-05-08T06:30:50;16.00;99.90
4530;DHT22;2277;51.626;7.516;2023-05-08T06:33:16;16.00;99.90
4530;DHT22;2277;51.626;7.516;2023-05-08T06:35:48;16.10;99.90
4530;DHT22;2277;51.626;7.516;2023-05-08T06:38:14;16.30;99.90
4530;DHT22;2277;51.626;7.516;2023-05-08T06:40:43;16.40;99.90
4530;DHT22;2277;51.626;7.516;2023-05-08T06:43:09;16.50;99.90
4530;DHT22;2277;51.626;7.516;2023-05-08T06:45:35;16.50;99.90
4530;DHT22;2277;51.626;7.516;2023-05-08T06:48:01;16.60;99.90
4530;DHT22;2277;51.626;7.516;2023-05-08T06:50:27;16.60;99.90
4530;DHT22;2277;51.626;7.516;2023-05-08T06:52:52;16.60;99.90
4530;DHT22;2277;51.626;7.516;2023-05-08T06:55:18;16.70;99.90
4530;DHT22;2277;51.626;7.516;2023-05-08T06:57:44;16.70;99.90
4530;DHT22;2277;51.626;7.516;2023-05-08T07:00:10;16.80;99.90
4530;DHT22;2277;51.626;7.516;2023-05-08T07:02:36;16.80;99.90
4530;DHT22;2277;51.626;7.516;2023-05-08T07:05:01;16.80;99.90
4530;DHT22;2277;51.626;7.516;2023-05-08T07:07:27;16.80;99.90
4530;DHT22;2277;51.626;7.516;2023-05-08T07:09:53;16.80;99.90
4530;DHT22;2277;51.626;7.516;2023-05-08T07:12:18;16.70;99.90
4530;DHT22;2277;51.626;7.516;2023-05-08T07:14:44;16.80;99.90
4530;DHT22;2277;51.626;7.516;2023-05-08T07:17:10;16.80;99.90
4530;DHT22;2277;51.626;7.516;2023-05-08T07:19:36;16.80;99.90
4530;DHT22;2277;51.626;7.516;2023-05-08T07:22:03;16.90;99.90
4530;DHT22;2277;51.626;7.516;2023-05-08T07:24:28;16.90;99.90
4530;DHT22;2277;51.626;7.516;2023-05-08T07:26:54;16.90;99.90
4530;DHT22;2277;51.626;7.516;2023-05-08T07:29:20;16.90;99.90
4530;DHT22;2277;51.626;7.516;2023-05-08T07:31:45;17.00;99.90
4530;DHT22;2277;51.626;7.516;2023-05-08T07:34:13;17.00;99.90
4530;DHT22;2277;51.626;7.516;2023-05-08T07:36:39;16.90;99.90
4530;DHT22;2277;51.626;7.516;2023-05-08T07:39:04;17.00;99.90
4530;DHT22;2277;51.626;7.516;2023-05-08T07:41:30;17.10;99.90
4530;DHT22;2277;51.626;7.516;2023-05-08T07:43:57;17.10;99.90
4530;DHT22;2277;51.626;7.516;2023-05-08T07:46:23;17.20;99.90
4530;DHT22;2277;51.626;7.516;2023-05-08T07:48:49;17.20;99.90
4530;DHT22;2277;51.626;7.516;2023-05-08T07:51:14;17.40;99.90
4530;DHT22;2277;51.626;7.516;2023-05-08T07:53:40;17.50;99.90
4530;DHT22;2277;51.626;7.516;2023-05-08T07:56:06;17.60;99.90
4530;DHT22;2277;51.626;7.516;2023-05-08T07:58:31;17.80;99.90
4530;DHT22;2277;51.626;7.516;2023-05-08T08:00:57;17.80;99.90
4530;DHT22;2277;51.626;7.516;2023-05-08T08:03:23;17.90;99.90
4530;DHT22;2277;51.626;7.516;2023-05-08T08:05:48;18.00;99.90
4530;DHT22;2277;51.626;7.516;2023-05-08T08:08:14;18.10;99.90
4530;DHT22;2277;51.626;7.516;2023-05-08T08:10:40;18.20;99.90
4530;DHT22;2277;51.626;7.516;2023-05-08T08:13:06;18.30;99.90
4530;DHT22;2277;51.626;7.516;2023-05-08T08:15:31;18.50;99.90
4530;DHT22;2277;51.626;7.516;2023-05-08T08:17:57;18.70;99.90
4530;DHT22;2277;51.626;7.516;2023-05-08T08:20:22;18.90;99.90
4530;DHT22;2277;51.626;7.516;2023-05-08T08:22:48;19.10;99.90
4530;DHT22;2277;51.626;7.516;2023-05-08T08:25:14;19.30;99.90
4530;DHT22;2277;51.626;7.516;2023-05-08T08:27:39;19.40;99.90
4530;DHT22;2277;51.626;7.516;2023-05-08T08:30:06;19.50;99.90
4530;DHT22;2277;51.626;7.516;2023-05-08T08:32:31;19.70;99.90
4530;DHT22;2277;51.626;7.516;2023-05-08T08:34:57;19.80;99.90
4530;DHT22;2277;51.626;7.516;2023-05-08T08:37:22;19.80;99.90
4530;DHT22;2277;51.626;7.516;2023-05-08T08:39:50;19.90;99.90
4530;DHT22;2277;51.626;7.516;2023-05-08T08:42:16;20.00;99.90
4530;DHT22;2277;51.626;7.516;2023-05-08T08:44:41;20.00;99.90
4530;DHT22;2277;51.626;7.516;2023-05-08T08:47:15;19.80;99.90
4530;DHT22;2277;51.626;7.516;2023-05-08T08:49:47;19.70;99.90
4530;DHT22;2277;51.626;7.516;2023-05-08T08:52:30;19.60;99.90
4530;DHT22;2277;51.626;7.516;2023-05-08T08:55:02;19.60;99.90
4530;DHT22;2277;51.626;7.516;2023-05-08T08:57:31;19.60;99.90
4530;DHT22;2277;51.626;7.516;2023-05-08T09:00:00;19.60;99.90
4530;DHT22;2277;51.626;7.516;2023-05-08T09:02:28;19.80;99.90
4530;DHT22;2277;51.626;7.516;2023-05-08T09:04:55;19.80;99.90
4530;DHT22;2277;51.626;7.516;2023-05-08T09:07:21;19.80;99.90
4530;DHT22;2277;51.626;7.516;2023-05-08T09:09:48;19.90;99.90
4530;DHT22;2277;51.626;7.516;2023-05-08T09:12:13;20.00;99.90
4530;DHT22;2277;51.626;7.516;2023-05-08T09:14:39;20.10;99.90
4530;DHT22;2277;51.626;7.516;2023-05-08T09:17:05;20.20;99.90
4530;DHT22;2277;51.626;7.516;2023-05-08T09:19:31;20.20;99.90
4530;DHT22;2277;51.626;7.516;2023-05-08T09:22:00;20.20;99.90
4530;DHT22;2277;51.626;7.516;2023-05-08T09:27:22;20.20;99.90
4530;DHT22;2277;51.626;7.516;2023-05-08T09:29:58;20.40;99.90
4530;DHT22;2277;51.626;7.516;2023-05-08T09:32:25;20.50;99.90
4530;DHT22;2277;51.626;7.516;2023-05-08T09:34:53;20.60;99.90
4530;DHT22;2277;51.626;7.516;2023-05-08T09:37:19;20.70;99.90
4530;DHT22;2277;51.626;7.516;2023-05-08T09:39:45;20.80;99.90
4530;DHT22;2277;51.626;7.516;2023-05-08T09:42:12;20.90;99.90
4530;DHT22;2277;51.626;7.516;2023-05-08T09:44:49;21.00;99.90
4530;DHT22;2277;51.626;7.516;2023-05-08T09:47:24;21.20;99.90
4530;DHT22;2277;51.626;7.516;2023-05-08T09:50:06;21.30;99.90
4530;DHT22;2277;51.626;7.516;2023-05-08T09:52:34;21.30;99.90
4530;DHT22;2277;51.626;7.516;2023-05-08T09:55:08;21.20;99.90
4530;DHT22;2277;51.626;7.516;2023-05-08T09:57:38;21.30;99.90
4530;DHT22;2277;51.626;7.516;2023-05-08T10:00:10;21.30;99.90
4530;DHT22;2277;51.626;7.516;2023-05-08T10:02:38;21.30;99.90
4530;DHT22;2277;51.626;7.516;2023-05-08T10:07:47;21.30;99.90
4530;DHT22;2277;51.626;7.516;2023-05-08T10:10:12;21.20;99.90
4530;DHT22;2277;51.626;7.516;2023-05-08T10:12:39;21.20;99.90
4530;DHT22;2277;51.626;7.516;2023-05-08T10:15:06;20.90;99.90
4530;DHT22;2277;51.626;7.516;2023-05-08T10:17:41;21.00;99.90
4530;DHT22;2277;51.626;7.516;2023-05-08T10:20:10;21.00;99.90
4530;DHT22;2277;51.626;7.516;2023-05-08T10:22:37;20.90;99.90
4530;DHT22;2277;51.626;7.516;2023-05-08T10:25:11;20.90;99.90
4530;DHT22;2277;51.626;7.516;2023-05-08T10:27:43;20.90;99.90
4530;DHT22;2277;51.626;7.516;2023-05-08T10:30:12;21.00;99.90
4530;DHT22;2277;51.626;7.516;2023-05-08T10:32:43;21.00;99.90
4530;DHT22;2277;51.626;7.516;2023-05-08T10:35:11;21.00;99.90
4530;DHT22;2277;51.626;7.516;2023-05-08T10:37:37;21.00;99.90
4530;DHT22;2277;51.626;7.516;2023-05-08T10:40:04;21.10;99.90
4530;DHT22;2277;51.626;7.516;2023-05-08T10:42:32;21.10;99.90
4530;DHT22;2277;51.626;7.516;2023-05-08T10:44:58;21.20;99.90
4530;DHT22;2277;51.626;7.516;2023-05-08T10:50:21;21.20;99.90
4530;DHT22;2277;51.626;7.516;2023-05-08T10:55:36;21.20;99.90
4530;DHT22;2277;51.626;7.516;2023-05-08T11:01:17;21.20;99.90
4530;DHT22;2277;51.626;7.516;2023-05-08T11:03:25;21.30;99.90
4530;DHT22;2277;51.626;7.516;2023-05-08T11:05:53;21.30;99.90
4530;DHT22;2277;51.626;7.516;2023-05-08T11:08:20;21.30;99.90
4530;DHT22;2277;51.626;7.516;2023-05-08T11:11:04;21.40;99.90
4530;DHT22;2277;51.626;7.516;2023-05-08T11:13:39;21.50;99.90
4530;DHT22;2277;51.626;7.516;2023-05-08T11:16:06;21.50;99.90
4530;DHT22;2277;51.626;7.516;2023-05-08T11:18:35;21.40;99.90
4530;DHT22;2277;51.626;7.516;2023-05-08T11:21:05;21.20;99.90
4530;DHT22;2277;51.626;7.516;2023-05-08T11:23:38;21.10;99.90
4530;DHT22;2277;51.626;7.516;2023-05-08T11:26:06;21.00;99.90
4530;DHT22;2277;51.626;7.516;2023-05-08T11:28:36;21.10;99.90
4530;DHT22;2277;51.626;7.516;2023-05-08T11:31:03;21.30;99.90
4530;DHT22;2277;51.626;7.516;2023-05-08T11:33:35;21.30;99.90
4530;DHT22;2277;51.626;7.516;2023-05-08T11:36:19;21.40;99.90
4530;DHT22;2277;51.626;7.516;2023-05-08T11:39:07;21.40;99.90
4530;DHT22;2277;51.626;7.516;2023-05-08T11:41:33;21.50;99.90
4530;DHT22;2277;51.626;7.516;2023-05-08T11:46:54;21.60;99.90
4530;DHT22;2277;51.626;7.516;2023-05-08T11:49:24;21.60;99.90
4530;DHT22;2277;51.626;7.516;2023-05-08T11:51:52;21.50;99.90
4530;DHT22;2277;51.626;7.516;2023-05-08T11:54:23;21.50;99.90
4530;DHT22;2277;51.626;7.516;2023-05-08T11:56:51;21.50;99.90
4530;DHT22;2277;51.626;7.516;2023-05-08T11:59:17;21.40;99.90
4530;DHT22;2277;51.626;7.516;2023-05-08T12:01:43;21.40;99.90
4530;DHT22;2277;51.626;7.516;2023-05-08T12:04:11;21.40;99.90
4530;DHT22;2277;51.626;7.516;2023-05-08T12:06:39;21.40;99.90
4530;DHT22;2277;51.626;7.516;2023-05-08T12:09:14;21.40;99.90
4530;DHT22;2277;51.626;7.516;2023-05-08T12:11:40;21.50;99.90
4530;DHT22;2277;51.626;7.516;2023-05-08T12:14:08;21.50;99.90
4530;DHT22;2277;51.626;7.516;2023-05-08T12:16:35;21.40;99.90
4530;DHT22;2277;51.626;7.516;2023-05-08T12:19:01;21.10;99.90
4530;DHT22;2277;51.626;7.516;2023-05-08T12:21:27;20.90;99.90
4530;DHT22;2277;51.626;7.516;2023-05-08T12:23:54;20.90;99.90
4530;DHT22;2277;51.626;7.516;2023-05-08T12:26:20;20.80;99.90
4530;DHT22;2277;51.626;7.516;2023-05-08T12:28:53;20.70;99.90
4530;DHT22;2277;51.626;7.516;2023-05-08T12:31:20;20.70;99.90
4530;DHT22;2277;51.626;7.516;2023-05-08T12:33:46;20.70;99.90
4530;DHT22;2277;51.626;7.516;2023-05-08T12:36:12;20.70;99.90
4530;DHT22;2277;51.626;7.516;2023-05-08T12:38:38;20.60;99.90
4530;DHT22;2277;51.626;7.516;2023-05-08T12:41:04;20.60;99.90
4530;DHT22;2277;51.626;7.516;2023-05-08T12:43:34;20.70;99.90
4530;DHT22;2277;51.626;7.516;2023-05-08T12:46:00;20.80;99.90
4530;DHT22;2277;51.626;7.516;2023-05-08T12:48:26;20.90;99.90
4530;DHT22;2277;51.626;7.516;2023-05-08T12:50:53;20.90;99.90
4530;DHT22;2277;51.626;7.516;2023-05-08T12:53:20;20.80;99.90
4530;DHT22;2277;51.626;7.516;2023-05-08T12:55:52;20.70;99.90
4530;DHT22;2277;51.626;7.516;2023-05-08T12:58:18;20.70;99.90
4530;DHT22;2277;51.626;7.516;2023-05-08T13:00:46;20.90;99.90
4530;DHT22;2277;51.626;7.516;2023-05-08T13:03:13;21.00;99.90
4530;DHT22;2277;51.626;7.516;2023-05-08T13:05:45;21.10;99.90
4530;DHT22;2277;51.626;7.516;2023-05-08T13:08:11;21.20;99.90
4530;DHT22;2277;51.626;7.516;2023-05-08T13:13:12;21.20;99.90
4530;DHT22;2277;51.626;7.516;2023-05-08T13:15:37;21.30;99.90
4530;DHT22;2277;51.626;7.516;2023-05-08T13:18:03;21.30;99.90
4530;DHT22;2277;51.626;7.516;2023-05-08T13:20:29;21.30;99.90
4530;DHT22;2277;51.626;7.516;2023-05-08T13:22:54;21.40;99.90
4530;DHT22;2277;51.626;7.516;2023-05-08T13:25:20;21.60;99.90
4530;DHT22;2277;51.626;7.516;2023-05-08T13:27:46;21.60;99.90
4530;DHT22;2277;51.626;7.516;2023-05-08T13:30:12;21.70;99.90
4530;DHT22;2277;51.626;7.516;2023-05-08T13:32:37;21.60;99.90
4530;DHT22;2277;51.626;7.516;2023-05-08T13:35:03;21.60;99.90
4530;DHT22;2277;51.626;7.516;2023-05-08T13:37:29;21.50;99.90
4530;DHT22;2277;51.626;7.516;2023-05-08T13:39:55;21.50;99.90
4530;DHT22;2277;51.626;7.516;2023-05-08T13:42:20;21.60;99.90
4530;DHT22;2277;51.626;7.516;2023-05-08T13:44:46;21.80;99.90
4530;DHT22;2277;51.626;7.516;2023-05-08T13:47:11;21.90;99.90
4530;DHT22;2277;51.626;7.516;2023-05-08T13:49:37;21.90;99.90
4530;DHT22;2277;51.626;7.516;2023-05-08T13:52:03;21.80;99.90
4530;DHT22;2277;51.626;7.516;2023-05-08T13:54:28;21.70;99.90
4530;DHT22;2277;51.626;7.516;2023-05-08T13:56:54;21.80;99.90
4530;DHT22;2277;51.626;7.516;2023-05-08T13:59:20;21.80;99.90
4530;DHT22;2277;51.626;7.516;2023-05-08T14:01:45;21.60;99.90
4530;DHT22;2277;51.626;7.516;2023-05-08T14:04:11;21.50;99.90
4530;DHT22;2277;51.626;7.516;2023-05-08T14:06:36;21.50;99.90
4530;DHT22;2277;51.626;7.516;2023-05-08T14:09:02;21.60;99.90
4530;DHT22;2277;51.626;7.516;2023-05-08T14:11:28;21.70;99.90
4530;DHT22;2277;51.626;7.516;2023-05-08T14:13:54;21.70;99.90
4530;DHT22;2277;51.626;7.516;2023-05-08T14:16:20;21.60;99.90
4530;DHT22;2277;51.626;7.516;2023-05-08T14:18:45;21.60;99.90
4530;DHT22;2277;51.626;7.516;2023-05-08T14:21:11;21.70;99.90
4530;DHT22;2277;51.626;7.516;2023-05-08T14:23:36;21.60;99.90
4530;DHT22;2277;51.626;7.516;2023-05-08T14:26:03;21.70;99.90
4530;DHT22;2277;51.626;7.516;2023-05-08T14:28:29;21.70;99.90
4530;DHT22;2277;51.626;7.516;2023-05-08T14:30:55;21.80;99.90
4530;DHT22;2277;51.626;7.516;2023-05-08T14:33:20;21.70;99.90
4530;DHT22;2277;51.626;7.516;2023-05-08T14:35:46;21.70;99.90
4530;DHT22;2277;51.626;7.516;2023-05-08T14:38:13;21.50;99.90
4530;DHT22;2277;51.626;7.516;2023-05-08T14:40:39;21.60;99.90
4530;DHT22;2277;51.626;7.516;2023-05-08T14:43:05;21.50;99.90
4530;DHT22;2277;51.626;7.516;2023-05-08T14:45:30;21.40;99.90
4530;DHT22;2277;51.626;7.516;2023-05-08T14:47:56;21.60;99.90
4530;DHT22;2277;51.626;7.516;2023-05-08T14:50:22;21.70;99.90
4530;DHT22;2277;51.626;7.516;2023-05-08T14:52:52;21.60;99.90
4530;DHT22;2277;51.626;7.516;2023-05-08T14:55:18;21.60;99.90
4530;DHT22;2277;51.626;7.516;2023-05-08T14:57:48;21.70;99.90
4530;DHT22;2277;51.626;7.516;2023-05-08T15:00:15;21.70;99.90
4530;DHT22;2277;51.626;7.516;2023-05-08T15:02:41;21.70;99.90
4530;DHT22;2277;51.626;7.516;2023-05-08T15:05:08;21.80;99.90
4530;DHT22;2277;51.626;7.516;2023-05-08T15:07:34;21.80;99.90
4530;DHT22;2277;51.626;7.516;2023-05-08T15:10:00;21.90;99.90
4530;DHT22;2277;51.626;7.516;2023-05-08T15:12:26;21.80;99.90
4530;DHT22;2277;51.626;7.516;2023-05-08T15:14:52;21.70;99.90
4530;DHT22;2277;51.626;7.516;2023-05-08T15:17:18;21.50;99.90
4530;DHT22;2277;51.626;7.516;2023-05-08T15:19:43;21.50;99.90
4530;DHT22;2277;51.626;7.516;2023-05-08T15:22:10;21.40;99.90
4530;DHT22;2277;51.626;7.516;2023-05-08T15:24:36;21.50;99.90
4530;DHT22;2277;51.626;7.516;2023-05-08T15:27:02;21.60;99.90
4530;DHT22;2277;51.626;7.516;2023-05-08T15:29:27;21.60;99.90
4530;DHT22;2277;51.626;7.516;2023-05-08T15:31:53;21.60;99.90
4530;DHT22;2277;51.626;7.516;2023-05-08T15:34:19;21.50;99.90
4530;DHT22;2277;51.626;7.516;2023-05-08T15:36:45;21.50;99.90
4530;DHT22;2277;51.626;7.516;2023-05-08T15:39:11;21.50;99.90
4530;DHT22;2277;51.626;7.516;2023-05-08T15:41:37;21.60;99.90
4530;DHT22;2277;51.626;7.516;2023-05-08T15:44:04;21.50;99.90
4530;DHT22;2277;51.626;7.516;2023-05-08T15:46:30;21.40;99.90
4530;DHT22;2277;51.626;7.516;2023-05-08T15:48:55;21.40;99.90
4530;DHT22;2277;51.626;7.516;2023-05-08T15:51:21;21.40;99.90
4530;DHT22;2277;51.626;7.516;2023-05-08T15:53:47;21.20;99.90
4530;DHT22;2277;51.626;7.516;2023-05-08T15:56:12;21.20;99.90
4530;DHT22;2277;51.626;7.516;2023-05-08T15:58:38;21.30;99.90
4530;DHT22;2277;51.626;7.516;2023-05-08T16:01:04;21.30;99.90
4530;DHT22;2277;51.626;7.516;2023-05-08T16:03:31;21.40;99.90
4530;DHT22;2277;51.626;7.516;2023-05-08T16:05:57;21.40;99.90
4530;DHT22;2277;51.626;7.516;2023-05-08T16:08:22;21.30;99.90
4530;DHT22;2277;51.626;7.516;2023-05-08T16:10:48;21.30;99.90
4530;DHT22;2277;51.626;7.516;2023-05-08T16:13:14;21.40;99.90
4530;DHT22;2277;51.626;7.516;2023-05-08T16:15:40;21.30;99.90
4530;DHT22;2277;51.626;7.516;2023-05-08T16:18:06;21.30;99.90
4530;DHT22;2277;51.626;7.516;2023-05-08T16:20:32;21.30;99.90
4530;DHT22;2277;51.626;7.516;2023-05-08T16:22:58;21.10;99.90
4530;DHT22;2277;51.626;7.516;2023-05-08T16:25:24;21.20;99.90
4530;DHT22;2277;51.626;7.516;2023-05-08T16:27:50;21.10;99.90
4530;DHT22;2277;51.626;7.516;2023-05-08T16:30:16;21.10;99.90
4530;DHT22;2277;51.626;7.516;2023-05-08T16:32:42;21.10;99.90
4530;DHT22;2277;51.626;7.516;2023-05-08T16:35:10;21.10;99.90
4530;DHT22;2277;51.626;7.516;2023-05-08T16:37:35;21.20;99.90
4530;DHT22;2277;51.626;7.516;2023-05-08T16:40:01;21.20;99.90
4530;DHT22;2277;51.626;7.516;2023-05-08T16:42:27;21.30;99.90